sensor_id;sensor_type;location;lat;lon;timestamp;P1;durP1;ratioP1;P2;durP2;ratioP2
11496;SDS011;5805;51.542;7.230;2023-04-28T00:01:50;5.93;;;4.63;;
11496;SDS011;5805;51.542;7.230;2023-04-28T00:04:17;9.95;;;4.55;;
11496;SDS011;5805;51.542;7.230;2023-04-28T00:06:43;7.13;;;4.28;;
11496;SDS011;5805;51.542;7.230;2023-04-28T00:09:08;6.82;;;4.25;;
11496;SDS011;5805;51.542;7.230;2023-04-28T00:11:34;6.00;;;4.50;;
11496;SDS011;5805;51.542;7.230;2023-04-28T00:14:00;7.65;;;4.32;;
11496;SDS011;5805;51.542;7.230;2023-04-28T00:16:25;7.05;;;4.90;;
11496;SDS011;5805;51.542;7.230;2023-04-28T00:18:51;5.82;;;4.88;;
11496;SDS011;5805;51.542;7.230;2023-04-28T00:21:18;7.88;;;4.80;;
11496;SDS011;5805;51.542;7.230;2023-04-28T00:23:44;6.93;;;4.82;;
11496;SDS011;5805;51.542;7.230;2023-04-28T00:26:09;5.50;;;4.85;;
11496;SDS011;5805;51.542;7.230;2023-04-28T00:28:35;9.27;;;4.88;;
11496;SDS011;5805;51.542;7.230;2023-04-28T00:31:01;8.82;;;5.15;;
11496;SDS011;5805;51.542;7.230;2023-04-28T00:33:26;6.70;;;4.65;;
11496;SDS011;5805;51.542;7.230;2023-04-28T00:35:57;8.45;;;5.35;;
11496;SDS011;5805;51.542;7.230;2023-04-28T00:38:24;8.57;;;5.13;;
11496;SDS011;5805;51.542;7.230;2023-04-28T00:40:50;8.93;;;5.50;;
11496;SDS011;5805;51.542;7.230;2023-04-28T00:43:16;8.52;;;5.60;;
11496;SDS011;5805;51.542;7.230;2023-04-28T00:45:41;5.35;;;4.75;;
11496;SDS011;5805;51.542;7.230;2023-04-28T00:48:07;7.78;;;5.10;;
11496;SDS011;5805;51.542;7.230;2023-04-28T00:50:33;9.45;;;5.75;;
11496;SDS011;5805;51.542;7.230;2023-04-28T00:52:59;12.23;;;6.00;;
11496;SDS011;5805;51.542;7.230;2023-04-28T00:55:26;8.27;;;5.50;;
11496;SDS011;5805;51.542;7.230;2023-04-28T00:57:55;10.00;;;5.75;;
11496;SDS011;5805;51.542;7.230;2023-04-28T01:00:22;7.95;;;5.97;;
11496;SDS011;5805;51.542;7.230;2023-04-28T01:02:47;9.25;;;6.28;;
11496;SDS011;5805;51.542;7.230;2023-04-28T01:05:14;8.63;;;6.10;;
11496;SDS011;5805;51.542;7.230;2023-04-28T01:07:41;8.38;;;6.05;;
11496;SDS011;5805;51.542;7.230;2023-04-28T01:10:07;9.60;;;6.10;;
11496;SDS011;5805;51.542;7.230;2023-04-28T01:12:35;9.88;;;6.50;;
11496;SDS011;5805;51.542;7.230;2023-04-28T01:15:00;8.90;;;5.95;;
11496;SDS011;5805;51.542;7.230;2023-04-28T01:17:26;9.35;;;6.60;;
11496;SDS011;5805;51.542;7.230;2023-04-28T01:19:52;9.85;;;6.13;;
11496;SDS011;5805;51.542;7.230;2023-04-28T01:22:18;8.45;;;6.65;;
11496;SDS011;5805;51.542;7.230;2023-04-28T01:24:45;10.25;;;6.35;;
11496;SDS011;5805;51.542;7.230;2023-04-28T01:27:10;9.73;;;6.55;;
11496;SDS011;5805;51.542;7.230;2023-04-28T01:29:36;9.20;;;6.70;;
11496;SDS011;5805;51.542;7.230;2023-04-28T01:32:02;11.80;;;6.80;;
11496;SDS011;5805;51.542;7.230;2023-04-28T01:34:28;8.05;;;6.50;;
11496;SDS011;5805;51.542;7.230;2023-04-28T01:36:53;10.30;;;6.75;;
11496;SDS011;5805;51.542;7.230;2023-04-28T01:39:19;8.60;;;5.75;;
11496;SDS011;5805;51.542;7.230;2023-04-28T01:41:46;7.65;;;5.72;;
11496;SDS011;5805;51.542;7.230;2023-04-28T01:44:12;8.57;;;5.72;;
11496;SDS011;5805;51.542;7.230;2023-04-28T01:46:38;9.27;;;6.63;;
11496;SDS011;5805;51.542;7.230;2023-04-28T01:49:03;7.10;;;5.80;;
11496;SDS011;5805;51.542;7.230;2023-04-28T01:51:29;10.00;;;6.53;;
11496;SDS011;5805;51.542;7.230;2023-04-28T01:53:55;9.13;;;6.03;;
11496;SDS011;5805;51.542;7.230;2023-04-28T01:56:20;8.50;;;6.20;;
11496;SDS011;5805;51.542;7.230;2023-04-28T01:59:06;9.43;;;6.70;;
11496;SDS011;5805;51.542;7.230;2023-04-28T02:01:31;7.13;;;6.20;;
11496;SDS011;5805;51.542;7.230;2023-04-28T02:03:57;10.52;;;6.53;;
11496;SDS011;5805;51.542;7.230;2023-04-28T02:06:23;11.73;;;7.57;;
11496;SDS011;5805;51.542;7.230;2023-04-28T02:08:48;8.60;;;6.60;;
11496;SDS011;5805;51.542;7.230;2023-04-28T02:11:14;11.30;;;7.43;;
11496;SDS011;5805;51.542;7.230;2023-04-28T02:13:40;12.65;;;7.50;;
11496;SDS011;5805;51.542;7.230;2023-04-28T02:16:07;8.20;;;6.38;;
11496;SDS011;5805;51.542;7.230;2023-04-28T02:18:33;8.50;;;6.60;;
11496;SDS011;5805;51.542;7.230;2023-04-28T02:21:06;8.88;;;6.13;;
11496;SDS011;5805;51.542;7.230;2023-04-28T02:23:32;8.95;;;6.70;;
11496;SDS011;5805;51.542;7.230;2023-04-28T02:25:59;9.25;;;6.75;;
11496;SDS011;5805;51.542;7.230;2023-04-28T02:28:25;10.48;;;7.07;;
11496;SDS011;5805;51.542;7.230;2023-04-28T02:30:50;10.35;;;7.07;;
11496;SDS011;5805;51.542;7.230;2023-04-28T02:33:17;9.93;;;7.55;;
11496;SDS011;5805;51.542;7.230;2023-04-28T02:35:43;7.80;;;6.57;;
11496;SDS011;5805;51.542;7.230;2023-04-28T02:38:09;9.50;;;7.38;;
11496;SDS011;5805;51.542;7.230;2023-04-28T02:40:34;8.98;;;7.00;;
11496;SDS011;5805;51.542;7.230;2023-04-28T02:43:00;8.95;;;7.53;;
11496;SDS011;5805;51.542;7.230;2023-04-28T02:45:26;10.52;;;6.90;;
11496;SDS011;5805;51.542;7.230;2023-04-28T02:47:51;11.73;;;7.60;;
11496;SDS011;5805;51.542;7.230;2023-04-28T02:50:19;7.80;;;6.75;;
11496;SDS011;5805;51.542;7.230;2023-04-28T02:52:44;10.48;;;7.10;;
11496;SDS011;5805;51.542;7.230;2023-04-28T02:55:10;8.95;;;7.20;;
11496;SDS011;5805;51.542;7.230;2023-04-28T02:57:36;8.70;;;7.13;;
11496;SDS011;5805;51.542;7.230;2023-04-28T03:00:02;11.30;;;7.20;;
11496;SDS011;5805;51.542;7.230;2023-04-28T03:02:28;8.40;;;6.80;;
11496;SDS011;5805;51.542;7.230;2023-04-28T03:04:53;10.57;;;7.25;;
11496;SDS011;5805;51.542;7.230;2023-04-28T03:07:20;11.20;;;7.25;;
11496;SDS011;5805;51.542;7.230;2023-04-28T03:09:46;11.90;;;7.60;;
11496;SDS011;5805;51.542;7.230;2023-04-28T03:12:12;11.07;;;7.65;;
11496;SDS011;5805;51.542;7.230;2023-04-28T03:14:37;10.65;;;7.43;;
11496;SDS011;5805;51.542;7.230;2023-04-28T03:17:03;10.60;;;7.57;;
11496;SDS011;5805;51.542;7.230;2023-04-28T03:19:29;10.15;;;7.88;;
11496;SDS011;5805;51.542;7.230;2023-04-28T03:21:54;11.88;;;7.72;;
11496;SDS011;5805;51.542;7.230;2023-04-28T03:24:21;11.43;;;8.23;;
11496;SDS011;5805;51.542;7.230;2023-04-28T03:26:47;9.63;;;7.93;;
11496;SDS011;5805;51.542;7.230;2023-04-28T03:29:13;11.25;;;7.95;;
11496;SDS011;5805;51.542;7.230;2023-04-28T03:31:39;9.13;;;7.75;;
11496;SDS011;5805;51.542;7.230;2023-04-28T03:34:04;12.10;;;7.85;;
11496;SDS011;5805;51.542;7.230;2023-04-28T03:36:30;12.27;;;8.00;;
11496;SDS011;5805;51.542;7.230;2023-04-28T03:38:56;9.18;;;7.68;;
11496;SDS011;5805;51.542;7.230;2023-04-28T03:41:23;11.38;;;7.63;;
11496;SDS011;5805;51.542;7.230;2023-04-28T03:43:48;11.35;;;8.18;;
11496;SDS011;5805;51.542;7.230;2023-04-28T03:46:14;14.35;;;9.07;;
11496;SDS011;5805;51.542;7.230;2023-04-28T03:48:40;12.20;;;8.70;;
11496;SDS011;5805;51.542;7.230;2023-04-28T03:51:05;11.55;;;8.30;;
11496;SDS011;5805;51.542;7.230;2023-04-28T03:53:31;11.48;;;8.98;;
11496;SDS011;5805;51.542;7.230;2023-04-28T03:55:57;9.02;;;7.45;;
11496;SDS011;5805;51.542;7.230;2023-04-28T03:58:24;10.60;;;8.88;;
11496;SDS011;5805;51.542;7.230;2023-04-28T04:00:49;12.40;;;8.52;;
11496;SDS011;5805;51.542;7.230;2023-04-28T04:03:15;12.90;;;8.70;;
11496;SDS011;5805;51.542;7.230;2023-04-28T04:05:41;12.23;;;8.23;;
11496;SDS011;5805;51.542;7.230;2023-04-28T04:08:06;16.17;;;9.27;;
11496;SDS011;5805;51.542;7.230;2023-04-28T04:10:32;18.73;;;9.25;;
11496;SDS011;5805;51.542;7.230;2023-04-28T04:12:58;13.68;;;8.65;;
11496;SDS011;5805;51.542;7.230;2023-04-28T04:15:25;9.93;;;8.48;;
11496;SDS011;5805;51.542;7.230;2023-04-28T04:17:51;11.55;;;9.27;;
11496;SDS011;5805;51.542;7.230;2023-04-28T04:20:16;13.95;;;9.30;;
11496;SDS011;5805;51.542;7.230;2023-04-28T04:22:42;10.65;;;9.43;;
11496;SDS011;5805;51.542;7.230;2023-04-28T04:25:08;12.50;;;9.65;;
11496;SDS011;5805;51.542;7.230;2023-04-28T04:27:34;10.65;;;8.70;;
11496;SDS011;5805;51.542;7.230;2023-04-28T04:29:59;10.95;;;9.32;;
11496;SDS011;5805;51.542;7.230;2023-04-28T04:32:26;13.48;;;9.13;;
11496;SDS011;5805;51.542;7.230;2023-04-28T04:34:52;10.32;;;8.00;;
11496;SDS011;5805;51.542;7.230;2023-04-28T04:37:18;11.27;;;9.43;;
11496;SDS011;5805;51.542;7.230;2023-04-28T04:39:43;10.13;;;8.25;;
11496;SDS011;5805;51.542;7.230;2023-04-28T04:42:09;9.80;;;8.20;;
11496;SDS011;5805;51.542;7.230;2023-04-28T04:44:35;9.38;;;8.25;;
11496;SDS011;5805;51.542;7.230;2023-04-28T04:47:00;14.38;;;9.23;;
11496;SDS011;5805;51.542;7.230;2023-04-28T04:49:27;14.00;;;9.18;;
11496;SDS011;5805;51.542;7.230;2023-04-28T04:51:53;12.68;;;8.30;;
11496;SDS011;5805;51.542;7.230;2023-04-28T04:54:19;10.38;;;8.85;;
11496;SDS011;5805;51.542;7.230;2023-04-28T04:56:44;11.20;;;8.77;;
11496;SDS011;5805;51.542;7.230;2023-04-28T04:59:10;10.75;;;8.48;;
11496;SDS011;5805;51.542;7.230;2023-04-28T05:01:36;13.27;;;8.88;;
11496;SDS011;5805;51.542;7.230;2023-04-28T05:04:02;14.88;;;9.02;;
11496;SDS011;5805;51.542;7.230;2023-04-28T05:06:29;11.98;;;9.02;;
11496;SDS011;5805;51.542;7.230;2023-04-28T05:08:55;13.00;;;8.95;;
11496;SDS011;5805;51.542;7.230;2023-04-28T05:11:20;12.55;;;8.95;;
11496;SDS011;5805;51.542;7.230;2023-04-28T05:13:46;12.45;;;8.98;;
11496;SDS011;5805;51.542;7.230;2023-04-28T05:16:12;10.57;;;9.20;;
11496;SDS011;5805;51.542;7.230;2023-04-28T05:18:37;13.13;;;9.60;;
11496;SDS011;5805;51.542;7.230;2023-04-28T05:21:03;13.48;;;9.63;;
11496;SDS011;5805;51.542;7.230;2023-04-28T05:23:30;14.43;;;9.38;;
11496;SDS011;5805;51.542;7.230;2023-04-28T05:25:56;11.05;;;9.27;;
11496;SDS011;5805;51.542;7.230;2023-04-28T05:28:22;11.50;;;9.18;;
11496;SDS011;5805;51.542;7.230;2023-04-28T05:30:48;14.40;;;10.50;;
11496;SDS011;5805;51.542;7.230;2023-04-28T05:33:13;12.98;;;10.05;;
11496;SDS011;5805;51.542;7.230;2023-04-28T05:35:39;9.63;;;7.80;;
11496;SDS011;5805;51.542;7.230;2023-04-28T05:38:05;9.82;;;7.93;;
11496;SDS011;5805;51.542;7.230;2023-04-28T05:40:32;8.32;;;6.80;;
11496;SDS011;5805;51.542;7.230;2023-04-28T05:42:58;7.78;;;6.20;;
11496;SDS011;5805;51.542;7.230;2023-04-28T05:45:24;8.55;;;6.72;;
11496;SDS011;5805;51.542;7.230;2023-04-28T05:47:49;7.47;;;6.70;;
11496;SDS011;5805;51.542;7.230;2023-04-28T05:50:15;9.90;;;6.88;;
11496;SDS011;5805;51.542;7.230;2023-04-28T05:52:41;9.48;;;6.50;;
11496;SDS011;5805;51.542;7.230;2023-04-28T05:55:07;8.90;;;6.70;;
11496;SDS011;5805;51.542;7.230;2023-04-28T05:57:35;8.75;;;6.30;;
11496;SDS011;5805;51.542;7.230;2023-04-28T06:00:01;9.45;;;6.18;;
11496;SDS011;5805;51.542;7.230;2023-04-28T06:02:27;8.30;;;5.93;;
11496;SDS011;5805;51.542;7.230;2023-04-28T06:04:52;9.32;;;6.45;;
11496;SDS011;5805;51.542;7.230;2023-04-28T06:07:18;8.65;;;5.82;;
11496;SDS011;5805;51.542;7.230;2023-04-28T06:09:44;8.05;;;6.40;;
11496;SDS011;5805;51.542;7.230;2023-04-28T06:12:09;10.30;;;6.40;;
11496;SDS011;5805;51.542;7.230;2023-04-28T06:14:37;11.95;;;6.53;;
11496;SDS011;5805;51.542;7.230;2023-04-28T06:17:02;8.18;;;6.53;;
11496;SDS011;5805;51.542;7.230;2023-04-28T06:19:28;7.82;;;6.20;;
11496;SDS011;5805;51.542;7.230;2023-04-28T06:21:54;6.90;;;5.65;;
11496;SDS011;5805;51.542;7.230;2023-04-28T06:24:19;8.02;;;5.78;;
11496;SDS011;5805;51.542;7.230;2023-04-28T06:26:45;8.75;;;6.65;;
11496;SDS011;5805;51.542;7.230;2023-04-28T06:29:11;6.70;;;5.97;;
11496;SDS011;5805;51.542;7.230;2023-04-28T06:31:38;7.10;;;6.00;;
11496;SDS011;5805;51.542;7.230;2023-04-28T06:34:04;8.88;;;5.90;;
11496;SDS011;5805;51.542;7.230;2023-04-28T06:36:29;10.80;;;6.10;;
11496;SDS011;5805;51.542;7.230;2023-04-28T06:38:55;8.13;;;5.65;;
11496;SDS011;5805;51.542;7.230;2023-04-28T06:41:21;9.38;;;6.00;;
11496;SDS011;5805;51.542;7.230;2023-04-28T06:43:47;7.80;;;5.75;;
11496;SDS011;5805;51.542;7.230;2023-04-28T06:46:12;9.00;;;6.07;;
11496;SDS011;5805;51.542;7.230;2023-04-28T06:48:39;8.40;;;5.50;;
11496;SDS011;5805;51.542;7.230;2023-04-28T06:51:05;7.22;;;5.32;;
11496;SDS011;5805;51.542;7.230;2023-04-28T06:53:31;8.00;;;5.70;;
11496;SDS011;5805;51.542;7.230;2023-04-28T06:55:56;6.85;;;5.85;;
11496;SDS011;5805;51.542;7.230;2023-04-28T06:58:22;6.57;;;5.80;;
11496;SDS011;5805;51.542;7.230;2023-04-28T07:00:48;6.68;;;5.93;;
11496;SDS011;5805;51.542;7.230;2023-04-28T07:03:14;7.93;;;5.90;;
11496;SDS011;5805;51.542;7.230;2023-04-28T07:05:41;8.15;;;5.80;;
11496;SDS011;5805;51.542;7.230;2023-04-28T07:08:06;7.82;;;5.75;;
11496;SDS011;5805;51.542;7.230;2023-04-28T07:10:32;7.90;;;5.47;;
11496;SDS011;5805;51.542;7.230;2023-04-28T07:12:58;8.17;;;6.70;;
11496;SDS011;5805;51.542;7.230;2023-04-28T07:15:23;8.73;;;5.63;;
11496;SDS011;5805;51.542;7.230;2023-04-28T07:17:49;6.65;;;5.18;;
11496;SDS011;5805;51.542;7.230;2023-04-28T07:20:15;7.03;;;5.45;;
11496;SDS011;5805;51.542;7.230;2023-04-28T07:22:42;9.18;;;4.97;;
11496;SDS011;5805;51.542;7.230;2023-04-28T07:25:08;7.85;;;4.53;;
11496;SDS011;5805;51.542;7.230;2023-04-28T07:27:34;6.32;;;4.68;;
11496;SDS011;5805;51.542;7.230;2023-04-28T07:29:59;5.90;;;4.75;;
11496;SDS011;5805;51.542;7.230;2023-04-28T07:32:25;7.78;;;5.55;;
11496;SDS011;5805;51.542;7.230;2023-04-28T07:34:51;5.75;;;4.57;;
11496;SDS011;5805;51.542;7.230;2023-04-28T07:37:16;7.57;;;4.57;;
11496;SDS011;5805;51.542;7.230;2023-04-28T07:39:44;8.52;;;4.55;;
11496;SDS011;5805;51.542;7.230;2023-04-28T07:42:09;9.07;;;4.65;;
11496;SDS011;5805;51.542;7.230;2023-04-28T07:44:35;6.13;;;5.05;;
11496;SDS011;5805;51.542;7.230;2023-04-28T07:47:01;5.65;;;4.85;;
11496;SDS011;5805;51.542;7.230;2023-04-28T07:49:27;8.25;;;4.85;;
11496;SDS011;5805;51.542;7.230;2023-04-28T07:51:53;7.43;;;5.00;;
11496;SDS011;5805;51.542;7.230;2023-04-28T07:54:19;5.70;;;4.57;;
11496;SDS011;5805;51.542;7.230;2023-04-28T07:56:46;8.15;;;5.15;;
11496;SDS011;5805;51.542;7.230;2023-04-28T07:59:12;7.60;;;4.85;;
11496;SDS011;5805;51.542;7.230;2023-04-28T08:01:37;5.35;;;4.85;;
11496;SDS011;5805;51.542;7.230;2023-04-28T08:04:03;8.55;;;4.68;;
11496;SDS011;5805;51.542;7.230;2023-04-28T08:06:29;5.07;;;3.80;;
11496;SDS011;5805;51.542;7.230;2023-04-28T08:08:55;4.47;;;3.75;;
11496;SDS011;5805;51.542;7.230;2023-04-28T08:11:20;5.28;;;4.60;;
11496;SDS011;5805;51.542;7.230;2023-04-28T08:13:48;4.85;;;4.30;;
11496;SDS011;5805;51.542;7.230;2023-04-28T08:16:13;4.90;;;4.30;;
11496;SDS011;5805;51.542;7.230;2023-04-28T08:18:39;7.03;;;4.43;;
11496;SDS011;5805;51.542;7.230;2023-04-28T08:21:05;6.00;;;4.50;;
11496;SDS011;5805;51.542;7.230;2023-04-28T08:23:30;8.55;;;4.80;;
11496;SDS011;5805;51.542;7.230;2023-04-28T08:25:56;7.20;;;4.10;;
11496;SDS011;5805;51.542;7.230;2023-04-28T08:28:22;8.52;;;4.60;;
11496;SDS011;5805;51.542;7.230;2023-04-28T08:30:49;5.40;;;4.03;;
11496;SDS011;5805;51.542;7.230;2023-04-28T08:33:15;4.43;;;3.58;;
11496;SDS011;5805;51.542;7.230;2023-04-28T08:35:41;7.28;;;3.80;;
11496;SDS011;5805;51.542;7.230;2023-04-28T08:38:06;5.93;;;3.90;;
11496;SDS011;5805;51.542;7.230;2023-04-28T08:40:32;6.10;;;4.15;;
11496;SDS011;5805;51.542;7.230;2023-04-28T08:42:58;4.38;;;3.60;;
11496;SDS011;5805;51.542;7.230;2023-04-28T08:45:24;6.63;;;4.22;;
11496;SDS011;5805;51.542;7.230;2023-04-28T08:47:51;3.97;;;3.47;;
11496;SDS011;5805;51.542;7.230;2023-04-28T08:50:19;5.82;;;3.78;;
11496;SDS011;5805;51.542;7.230;2023-04-28T08:52:46;5.68;;;3.88;;
11496;SDS011;5805;51.542;7.230;2023-04-28T08:55:12;5.82;;;3.75;;
11496;SDS011;5805;51.542;7.230;2023-04-28T08:57:38;5.10;;;3.85;;
11496;SDS011;5805;51.542;7.230;2023-04-28T09:00:07;5.57;;;3.72;;
11496;SDS011;5805;51.542;7.230;2023-04-28T09:02:34;5.05;;;3.72;;
11496;SDS011;5805;51.542;7.230;2023-04-28T09:05:01;5.93;;;3.35;;
11496;SDS011;5805;51.542;7.230;2023-04-28T09:07:27;5.00;;;3.42;;
11496;SDS011;5805;51.542;7.230;2023-04-28T09:10:05;5.10;;;3.60;;
11496;SDS011;5805;51.542;7.230;2023-04-28T09:12:40;9.13;;;3.67;;
11496;SDS011;5805;51.542;7.230;2023-04-28T09:15:06;6.72;;;3.85;;
11496;SDS011;5805;51.542;7.230;2023-04-28T09:17:32;7.55;;;4.20;;
11496;SDS011;5805;51.542;7.230;2023-04-28T09:20:19;6.47;;;3.85;;
11496;SDS011;5805;51.542;7.230;2023-04-28T09:22:45;4.55;;;3.33;;
11496;SDS011;5805;51.542;7.230;2023-04-28T09:25:11;4.07;;;3.58;;
11496;SDS011;5805;51.542;7.230;2023-04-28T09:27:37;4.30;;;3.22;;
11496;SDS011;5805;51.542;7.230;2023-04-28T09:30:03;5.72;;;3.53;;
11496;SDS011;5805;51.542;7.230;2023-04-28T09:32:29;4.97;;;3.42;;
11496;SDS011;5805;51.542;7.230;2023-04-28T09:34:55;3.60;;;3.10;;
11496;SDS011;5805;51.542;7.230;2023-04-28T09:37:22;4.90;;;3.45;;
11496;SDS011;5805;51.542;7.230;2023-04-28T09:39:50;4.13;;;3.50;;
11496;SDS011;5805;51.542;7.230;2023-04-28T09:44:57;5.85;;;3.25;;
11496;SDS011;5805;51.542;7.230;2023-04-28T09:47:23;5.15;;;3.53;;
11496;SDS011;5805;51.542;7.230;2023-04-28T09:49:52;6.80;;;3.80;;
11496;SDS011;5805;51.542;7.230;2023-04-28T09:52:18;6.28;;;4.10;;
11496;SDS011;5805;51.542;7.230;2023-04-28T09:54:45;7.07;;;4.10;;
11496;SDS011;5805;51.542;7.230;2023-04-28T09:57:13;4.85;;;4.00;;
11496;SDS011;5805;51.542;7.230;2023-04-28T09:59:40;4.80;;;3.50;;
11496;SDS011;5805;51.542;7.230;2023-04-28T10:02:10;5.47;;;4.07;;
11496;SDS011;5805;51.542;7.230;2023-04-28T10:04:37;7.10;;;4.07;;
11496;SDS011;5805;51.542;7.230;2023-04-28T10:07:04;5.03;;;4.20;;
11496;SDS011;5805;51.542;7.230;2023-04-28T10:09:29;7.45;;;3.95;;
11496;SDS011;5805;51.542;7.230;2023-04-28T10:11:57;4.70;;;3.63;;
11496;SDS011;5805;51.542;7.230;2023-04-28T10:14:24;5.15;;;3.60;;
11496;SDS011;5805;51.542;7.230;2023-04-28T10:16:50;5.38;;;3.42;;
11496;SDS011;5805;51.542;7.230;2023-04-28T10:19:17;4.85;;;3.65;;
11496;SDS011;5805;51.542;7.230;2023-04-28T10:21:44;3.65;;;2.95;;
11496;SDS011;5805;51.542;7.230;2023-04-28T10:24:20;5.85;;;3.55;;
11496;SDS011;5805;51.542;7.230;2023-04-28T10:27:05;4.10;;;3.50;;
11496;SDS011;5805;51.542;7.230;2023-04-28T10:29:32;3.72;;;3.20;;
11496;SDS011;5805;51.542;7.230;2023-04-28T10:32:17;5.38;;;3.13;;
11496;SDS011;5805;51.542;7.230;2023-04-28T10:34:45;5.07;;;3.47;;
11496;SDS011;5805;51.542;7.230;2023-04-28T10:37:11;5.80;;;3.47;;
11496;SDS011;5805;51.542;7.230;2023-04-28T10:39:37;4.78;;;3.13;;
11496;SDS011;5805;51.542;7.230;2023-04-28T10:42:03;5.35;;;3.65;;
11496;SDS011;5805;51.542;7.230;2023-04-28T10:44:50;4.80;;;3.22;;
11496;SDS011;5805;51.542;7.230;2023-04-28T10:47:15;4.47;;;3.42;;
11496;SDS011;5805;51.542;7.230;2023-04-28T10:52:48;5.75;;;3.40;;
11496;SDS011;5805;51.542;7.230;2023-04-28T11:03:50;9.07;;;4.03;;
11496;SDS011;5805;51.542;7.230;2023-04-28T11:06:16;7.63;;;4.22;;
11496;SDS011;5805;51.542;7.230;2023-04-28T11:08:43;6.50;;;4.28;;
11496;SDS011;5805;51.542;7.230;2023-04-28T11:11:12;4.60;;;4.10;;
11496;SDS011;5805;51.542;7.230;2023-04-28T11:13:42;7.05;;;4.50;;
11496;SDS011;5805;51.542;7.230;2023-04-28T11:16:08;6.53;;;4.35;;
11496;SDS011;5805;51.542;7.230;2023-04-28T11:18:37;6.28;;;4.72;;
11496;SDS011;5805;51.542;7.230;2023-04-28T11:21:13;6.82;;;4.60;;
11496;SDS011;5805;51.542;7.230;2023-04-28T11:23:39;6.85;;;4.90;;
11496;SDS011;5805;51.542;7.230;2023-04-28T11:26:05;7.00;;;4.78;;
11496;SDS011;5805;51.542;7.230;2023-04-28T11:28:31;6.78;;;4.53;;
11496;SDS011;5805;51.542;7.230;2023-04-28T11:31:09;7.47;;;5.20;;
11496;SDS011;5805;51.542;7.230;2023-04-28T11:33:36;6.40;;;4.95;;
11496;SDS011;5805;51.542;7.230;2023-04-28T11:36:02;6.32;;;5.00;;
11496;SDS011;5805;51.542;7.230;2023-04-28T11:38:28;6.55;;;4.80;;
11496;SDS011;5805;51.542;7.230;2023-04-28T11:40:57;6.55;;;4.97;;
11496;SDS011;5805;51.542;7.230;2023-04-28T11:43:27;9.32;;;5.50;;
11496;SDS011;5805;51.542;7.230;2023-04-28T11:45:53;7.82;;;5.30;;
11496;SDS011;5805;51.542;7.230;2023-04-28T11:48:19;6.45;;;5.80;;
11496;SDS011;5805;51.542;7.230;2023-04-28T11:50:46;6.32;;;5.45;;
11496;SDS011;5805;51.542;7.230;2023-04-28T11:53:12;6.18;;;5.57;;
11496;SDS011;5805;51.542;7.230;2023-04-28T11:55:38;9.10;;;6.03;;
11496;SDS011;5805;51.542;7.230;2023-04-28T12:00:44;7.55;;;6.35;;
11496;SDS011;5805;51.542;7.230;2023-04-28T12:03:10;8.02;;;6.35;;
11496;SDS011;5805;51.542;7.230;2023-04-28T12:05:42;6.88;;;6.20;;
11496;SDS011;5805;51.542;7.230;2023-04-28T12:08:10;7.53;;;6.30;;
11496;SDS011;5805;51.542;7.230;2023-04-28T12:10:35;7.43;;;6.60;;
11496;SDS011;5805;51.542;7.230;2023-04-28T12:13:13;10.30;;;6.07;;
11496;SDS011;5805;51.542;7.230;2023-04-28T12:15:39;8.48;;;7.57;;
11496;SDS011;5805;51.542;7.230;2023-04-28T12:18:08;9.57;;;7.10;;
11496;SDS011;5805;51.542;7.230;2023-04-28T12:20:34;7.97;;;7.18;;
11496;SDS011;5805;51.542;7.230;2023-04-28T12:23:00;9.48;;;7.80;;
11496;SDS011;5805;51.542;7.230;2023-04-28T12:25:27;9.98;;;7.75;;
11496;SDS011;5805;51.542;7.230;2023-04-28T12:28:00;8.98;;;7.75;;
11496;SDS011;5805;51.542;7.230;2023-04-28T12:30:27;10.18;;;8.70;;
11496;SDS011;5805;51.542;7.230;2023-04-28T12:32:54;10.00;;;9.00;;
11496;SDS011;5805;51.542;7.230;2023-04-28T12:35:20;10.65;;;9.18;;
11496;SDS011;5805;51.542;7.230;2023-04-28T12:37:46;10.38;;;9.30;;
11496;SDS011;5805;51.542;7.230;2023-04-28T12:40:11;10.10;;;9.10;;
11496;SDS011;5805;51.542;7.230;2023-04-28T12:42:39;12.13;;;10.20;;
11496;SDS011;5805;51.542;7.230;2023-04-28T12:45:05;11.85;;;10.60;;
11496;SDS011;5805;51.542;7.230;2023-04-28T12:47:31;11.55;;;10.43;;
11496;SDS011;5805;51.542;7.230;2023-04-28T12:49:57;11.15;;;10.15;;
11496;SDS011;5805;51.542;7.230;2023-04-28T12:52:23;12.45;;;9.77;;
11496;SDS011;5805;51.542;7.230;2023-04-28T12:54:48;12.13;;;10.18;;
11496;SDS011;5805;51.542;7.230;2023-04-28T12:57:14;13.20;;;11.23;;
11496;SDS011;5805;51.542;7.230;2023-04-28T12:59:42;10.90;;;9.77;;
11496;SDS011;5805;51.542;7.230;2023-04-28T13:02:08;10.57;;;9.57;;
11496;SDS011;5805;51.542;7.230;2023-04-28T13:04:34;11.25;;;9.80;;
11496;SDS011;5805;51.542;7.230;2023-04-28T13:07:00;11.02;;;10.00;;
11496;SDS011;5805;51.542;7.230;2023-04-28T13:09:26;11.05;;;9.77;;
11496;SDS011;5805;51.542;7.230;2023-04-28T13:11:51;11.35;;;10.25;;
11496;SDS011;5805;51.542;7.230;2023-04-28T13:14:17;11.15;;;10.15;;
11496;SDS011;5805;51.542;7.230;2023-04-28T13:16:44;12.38;;;11.20;;
11496;SDS011;5805;51.542;7.230;2023-04-28T13:19:10;11.50;;;10.50;;
11496;SDS011;5805;51.542;7.230;2023-04-28T13:21:36;11.85;;;10.77;;
11496;SDS011;5805;51.542;7.230;2023-04-28T13:24:02;12.40;;;11.20;;
11496;SDS011;5805;51.542;7.230;2023-04-28T13:26:27;13.80;;;12.38;;
11496;SDS011;5805;51.542;7.230;2023-04-28T13:28:53;13.18;;;11.98;;
11496;SDS011;5805;51.542;7.230;2023-04-28T13:31:19;14.35;;;12.95;;
11496;SDS011;5805;51.542;7.230;2023-04-28T13:33:46;13.90;;;12.57;;
11496;SDS011;5805;51.542;7.230;2023-04-28T13:36:12;14.32;;;13.07;;
11496;SDS011;5805;51.542;7.230;2023-04-28T13:38:38;14.85;;;13.35;;
11496;SDS011;5805;51.542;7.230;2023-04-28T13:41:03;14.27;;;12.88;;
11496;SDS011;5805;51.542;7.230;2023-04-28T13:43:29;13.70;;;12.48;;
11496;SDS011;5805;51.542;7.230;2023-04-28T13:45:55;13.27;;;12.07;;
11496;SDS011;5805;51.542;7.230;2023-04-28T13:48:20;13.60;;;12.40;;
11496;SDS011;5805;51.542;7.230;2023-04-28T13:50:48;12.80;;;11.63;;
11496;SDS011;5805;51.542;7.230;2023-04-28T13:53:13;13.85;;;12.45;;
11496;SDS011;5805;51.542;7.230;2023-04-28T13:55:39;13.70;;;12.07;;
11496;SDS011;5805;51.542;7.230;2023-04-28T13:58:05;13.07;;;11.88;;
11496;SDS011;5805;51.542;7.230;2023-04-28T14:00:31;14.13;;;12.82;;
11496;SDS011;5805;51.542;7.230;2023-04-28T14:02:57;11.65;;;10.52;;
11496;SDS011;5805;51.542;7.230;2023-04-28T14:05:22;11.35;;;10.35;;
11496;SDS011;5805;51.542;7.230;2023-04-28T14:07:50;11.38;;;10.38;;
11496;SDS011;5805;51.542;7.230;2023-04-28T14:10:17;10.30;;;9.40;;
11496;SDS011;5805;51.542;7.230;2023-04-28T14:12:42;10.50;;;9.60;;
11496;SDS011;5805;51.542;7.230;2023-04-28T14:15:08;10.95;;;10.05;;
11496;SDS011;5805;51.542;7.230;2023-04-28T14:17:34;10.48;;;9.50;;
11496;SDS011;5805;51.542;7.230;2023-04-28T14:20:00;12.55;;;11.45;;
11496;SDS011;5805;51.542;7.230;2023-04-28T14:22:26;12.82;;;11.73;;
11496;SDS011;5805;51.542;7.230;2023-04-28T14:24:54;11.88;;;10.77;;
11496;SDS011;5805;51.542;7.230;2023-04-28T14:27:20;10.57;;;9.57;;
11496;SDS011;5805;51.542;7.230;2023-04-28T14:29:46;10.80;;;9.80;;
11496;SDS011;5805;51.542;7.230;2023-04-28T14:32:12;9.18;;;8.43;;
11496;SDS011;5805;51.542;7.230;2023-04-28T14:34:37;8.43;;;7.57;;
11496;SDS011;5805;51.542;7.230;2023-04-28T14:37:03;9.40;;;8.38;;
11496;SDS011;5805;51.542;7.230;2023-04-28T14:39:29;9.43;;;8.63;;
11496;SDS011;5805;51.542;7.230;2023-04-28T14:41:56;10.68;;;9.40;;
11496;SDS011;5805;51.542;7.230;2023-04-28T14:44:22;10.23;;;8.90;;
11496;SDS011;5805;51.542;7.230;2023-04-28T14:46:48;8.85;;;7.93;;
11496;SDS011;5805;51.542;7.230;2023-04-28T14:49:13;9.60;;;8.70;;
11496;SDS011;5805;51.542;7.230;2023-04-28T14:51:39;9.43;;;8.52;;
11496;SDS011;5805;51.542;7.230;2023-04-28T14:54:05;9.55;;;8.55;;
11496;SDS011;5805;51.542;7.230;2023-04-28T14:56:32;8.75;;;7.95;;
11496;SDS011;5805;51.542;7.230;2023-04-28T14:58:59;10.70;;;8.45;;
11496;SDS011;5805;51.542;7.230;2023-04-28T15:01:24;9.48;;;8.68;;
11496;SDS011;5805;51.542;7.230;2023-04-28T15:03:50;9.50;;;8.63;;
11496;SDS011;5805;51.542;7.230;2023-04-28T15:06:16;8.70;;;7.90;;
11496;SDS011;5805;51.542;7.230;2023-04-28T15:08:42;8.75;;;7.85;;